Time;durP1;ratioP1;P1;durP2;ratioP2;P2;SDS_P1;SDS_P2;PMS_P1;PMS_P2;Temp;Humidity;BMP_temperature;BMP_pressure;BME280_temperature;BME280_humidity;BME280_pressure;Samples;Min_cycle;Max_cycle;Signal;HPM_P1;HPM_P2
2023/12/17 00:00:20;;;;;;;11.00;4.07;;;9.40;99.90;;;;;;5048844;28;20041;-74
2023/12/17 00:02:49;;;;;;;10.13;3.75;;;9.40;99.90;;;;;;5048076;28;20045;-75
2023/12/17 00:05:16;;;;;;;12.48;3.38;;;9.50;99.90;;;;;;5048306;28;20041;-73
2023/12/17 00:07:42;;;;;;;11.18;4.13;;;9.50;99.90;;;;;;5048368;28;20083;-75
2023/12/17 00:10:08;;;;;;;11.98;4.07;;;9.80;99.90;;;;;;5048351;28;20392;-75
2023/12/17 00:12:34;;;;;;;8.25;3.55;;;9.80;99.90;;;;;;5050632;28;20095;-72
2023/12/17 00:14:59;;;;;;;9.95;4.25;;;9.60;99.90;;;;;;5050175;28;20057;-73
2023/12/17 00:17:25;;;;;;;12.52;4.30;;;9.50;99.90;;;;;;5050252;28;20052;-73
2023/12/17 00:19:51;;;;;;;8.43;3.63;;;9.40;99.90;;;;;;5052364;28;20473;-73
2023/12/17 00:22:16;;;;;;;12.57;4.10;;;9.40;99.90;;;;;;5050895;28;20045;-73
2023/12/17 00:24:42;;;;;;;12.43;3.58;;;9.40;99.90;;;;;;5049982;28;20527;-72
2023/12/17 00:27:07;;;;;;;12.23;3.90;;;9.50;99.90;;;;;;5051384;28;20045;-72
2023/12/17 00:29:33;;;;;;;10.77;3.63;;;9.50;99.90;;;;;;5051068;28;20053;-72
2023/12/17 00:31:59;;;;;;;11.20;3.55;;;9.50;99.90;;;;;;5049728;28;20119;-72
2023/12/17 00:34:24;;;;;;;11.25;3.78;;;9.50;99.90;;;;;;5050783;28;20128;-72
2023/12/17 00:36:50;;;;;;;14.18;3.53;;;9.90;99.90;;;;;;5049613;28;20444;-72
2023/12/17 00:39:15;;;;;;;12.25;4.07;;;9.50;99.90;;;;;;5050843;28;20052;-72
2023/12/17 00:41:41;;;;;;;11.07;3.85;;;9.50;99.90;;;;;;5050774;28;20059;-72
2023/12/17 00:44:06;;;;;;;13.77;3.75;;;9.50;99.90;;;;;;5049687;28;20045;-73
2023/12/17 00:46:32;;;;;;;8.98;3.47;;;9.40;99.90;;;;;;5050369;28;20074;-73
2023/12/17 00:48:58;;;;;;;9.63;3.50;;;9.70;99.90;;;;;;5050862;28;20044;-72
2023/12/17 00:51:23;;;;;;;11.40;3.47;;;9.40;99.90;;;;;;5052534;28;20048;-73
2023/12/17 00:53:52;;;;;;;13.57;3.50;;;9.40;99.90;;;;;;5055793;28;20045;-72
2023/12/17 00:56:18;;;;;;;8.27;2.88;;;9.30;99.90;;;;;;5054511;28;20967;-73
2023/12/17 00:58:43;;;;;;;8.68;3.67;;;9.60;99.90;;;;;;5052638;28;20048;-73
2023/12/17 01:01:09;;;;;;;11.00;3.50;;;9.40;99.90;;;;;;5053710;28;20451;-72
2023/12/17 01:03:35;;;;;;;10.77;3.50;;;9.70;99.90;;;;;;5054440;28;20040;-72
2023/12/17 01:06:00;;;;;;;11.38;3.65;;;9.90;99.90;;;;;;5052939;28;20167;-72
2023/12/17 01:08:29;;;;;;;9.18;3.03;;;9.40;99.90;;;;;;5054178;28;20500;-72
2023/12/17 01:10:54;;;;;;;14.93;3.65;;;9.40;99.90;;;;;;5054401;28;20099;-73
2023/12/17 01:13:22;;;;;;;7.65;2.90;;;9.50;99.90;;;;;;5053395;28;20060;-72
2023/12/17 01:15:48;;;;;;;11.27;4.13;;;9.60;99.90;;;;;;5054989;28;20045;-72
2023/12/17 01:18:14;;;;;;;6.75;2.88;;;9.90;99.90;;;;;;5053811;28;20055;-73
2023/12/17 01:20:40;;;;;;;16.55;3.83;;;9.60;99.90;;;;;;5053134;28;20400;-72
2023/12/17 01:23:06;;;;;;;11.40;3.65;;;9.70;99.90;;;;;;5053998;28;20049;-72
2023/12/17 01:25:31;;;;;;;11.02;3.75;;;9.60;99.90;;;;;;5053583;28;20097;-72
2023/12/17 01:27:57;;;;;;;10.88;4.32;;;9.60;99.90;;;;;;5053439;28;20080;-72
2023/12/17 01:30:22;;;;;;;11.18;3.88;;;9.50;99.90;;;;;;5053696;28;20057;-72
2023/12/17 01:32:51;;;;;;;11.52;3.88;;;9.60;99.90;;;;;;5055016;28;20037;-73
2023/12/17 01:35:17;;;;;;;13.70;4.00;;;10.20;99.90;;;;;;5052387;28;20057;-73
2023/12/17 01:37:42;;;;;;;12.98;3.97;;;9.50;99.90;;;;;;5052941;28;20048;-72
2023/12/17 01:40:08;;;;;;;10.30;3.10;;;9.80;99.90;;;;;;5052092;28;20037;-73
2023/12/17 01:42:34;;;;;;;7.63;3.38;;;9.50;99.90;;;;;;5053432;28;20404;-73
2023/12/17 01:44:59;;;;;;;14.07;3.22;;;9.80;99.90;;;;;;5053256;28;20045;-73
2023/12/17 01:47:25;;;;;;;12.50;3.97;;;9.60;99.90;;;;;;5053988;28;20060;-73
2023/12/17 01:49:51;;;;;;;12.68;3.75;;;9.60;99.90;;;;;;5053526;28;20076;-73
2023/12/17 01:52:17;;;;;;;14.18;3.83;;;9.50;99.90;;;;;;5052561;28;20055;-73
2023/12/17 01:54:43;;;;;;;11.07;3.60;;;9.60;99.90;;;;;;5052553;28;20041;-73
2023/12/17 01:57:09;;;;;;;7.15;3.40;;;9.60;99.90;;;;;;5053009;28;20049;-73
2023/12/17 01:59:35;;;;;;;9.95;3.58;;;9.60;99.90;;;;;;5053054;28;20055;-73
2023/12/17 02:02:02;;;;;;;7.82;3.38;;;9.70;99.90;;;;;;5068626;28;20431;-73
2023/12/17 02:04:28;;;;;;;10.30;3.67;;;9.60;99.90;;;;;;5052434;28;20041;-73
2023/12/17 02:06:54;;;;;;;10.48;3.42;;;10.10;99.90;;;;;;5052502;28;20568;-72
2023/12/17 02:09:20;;;;;;;10.32;3.45;;;9.80;99.90;;;;;;5051754;28;20119;-73
2023/12/17 02:11:46;;;;;;;12.13;4.25;;;9.50;99.90;;;;;;5052969;28;20045;-73
2023/12/17 02:14:11;;;;;;;9.13;4.00;;;9.50;99.90;;;;;;5052564;28;20040;-73
2023/12/17 02:16:37;;;;;;;9.45;4.00;;;9.50;99.90;;;;;;5052016;28;20045;-73
2023/12/17 02:19:03;;;;;;;12.25;4.20;;;9.50;99.90;;;;;;5052566;28;20041;-72
2023/12/17 02:21:28;;;;;;;12.43;3.75;;;9.40;99.90;;;;;;5052680;28;20401;-73
2023/12/17 02:23:54;;;;;;;9.57;3.83;;;10.20;99.90;;;;;;5051983;28;20048;-72
2023/12/17 02:26:20;;;;;;;10.40;4.10;;;9.60;99.90;;;;;;5051937;28;20051;-73
2023/12/17 02:28:47;;;;;;;9.70;3.30;;;9.40;99.90;;;;;;5052475;28;20388;-72
2023/12/17 02:31:13;;;;;;;11.18;4.15;;;9.40;99.90;;;;;;5052924;28;20056;-73
2023/12/17 02:33:38;;;;;;;11.13;3.85;;;9.40;99.90;;;;;;5054057;28;20408;-73
2023/12/17 02:36:04;;;;;;;8.30;2.95;;;9.40;99.90;;;;;;5051665;28;20413;-73
2023/12/17 02:38:30;;;;;;;9.95;3.70;;;9.40;99.90;;;;;;5053061;28;20493;-73
2023/12/17 02:40:56;;;;;;;10.27;4.20;;;9.40;99.90;;;;;;5052603;28;20119;-73
2023/12/17 02:43:21;;;;;;;11.35;3.45;;;9.30;99.90;;;;;;5051210;28;20049;-72
2023/12/17 02:45:47;;;;;;;11.30;3.80;;;9.50;99.90;;;;;;5051941;28;20072;-73
2023/12/17 02:48:12;;;;;;;7.60;3.75;;;9.40;99.90;;;;;;5051929;28;20542;-73
2023/12/17 02:50:38;;;;;;;9.52;3.50;;;9.40;99.90;;;;;;5052752;28;20072;-72
2023/12/17 02:53:04;;;;;;;9.75;4.25;;;9.40;99.90;;;;;;5052082;28;20045;-73
2023/12/17 02:55:29;;;;;;;10.18;3.70;;;9.40;99.90;;;;;;5051952;28;20682;-73
2023/12/17 02:57:55;;;;;;;6.78;3.22;;;9.60;99.90;;;;;;5052358;28;20041;-73
2023/12/17 03:00:20;;;;;;;10.38;4.15;;;9.50;99.90;;;;;;5051191;28;20049;-73
2023/12/17 03:02:46;;;;;;;7.75;4.00;;;9.50;99.90;;;;;;5051638;28;20053;-73
2023/12/17 03:05:11;;;;;;;10.52;3.90;;;9.50;99.90;;;;;;5050947;28;20451;-72
2023/12/17 03:07:37;;;;;;;8.70;3.40;;;9.70;99.90;;;;;;5051952;28;20052;-72
2023/12/17 03:10:03;;;;;;;9.77;4.30;;;9.90;99.90;;;;;;5051267;28;20049;-72
2023/12/17 03:12:29;;;;;;;8.60;3.42;;;9.50;99.90;;;;;;5051113;28;20053;-72
2023/12/17 03:14:54;;;;;;;12.52;3.90;;;9.50;99.90;;;;;;5050605;28;20400;-72
2023/12/17 03:17:20;;;;;;;7.85;4.38;;;9.50;99.90;;;;;;5050936;28;20080;-73
2023/12/17 03:19:45;;;;;;;9.15;3.88;;;9.60;99.90;;;;;;5050820;28;20404;-72
2023/12/17 03:22:11;;;;;;;9.10;3.83;;;9.50;99.90;;;;;;5051421;28;20049;-72
2023/12/17 03:24:37;;;;;;;9.23;3.45;;;9.50;99.90;;;;;;5051288;28;20041;-73
2023/12/17 03:27:03;;;;;;;10.10;3.72;;;9.40;99.90;;;;;;5049999;28;20412;-73
2023/12/17 03:29:29;;;;;;;9.15;4.45;;;9.40;99.90;;;;;;5051803;28;20047;-73
2023/12/17 03:31:54;;;;;;;11.15;4.13;;;9.70;99.90;;;;;;5051729;28;20424;-73
2023/12/17 03:34:20;;;;;;;13.52;4.18;;;9.60;99.90;;;;;;5049748;28;20045;-73
2023/12/17 03:36:46;;;;;;;9.10;3.28;;;9.40;99.90;;;;;;5051516;28;20114;-73
2023/12/17 03:39:13;;;;;;;8.95;4.40;;;9.40;99.90;;;;;;5052385;28;20451;-73
2023/12/17 03:41:38;;;;;;;9.50;4.47;;;9.40;99.90;;;;;;5050434;28;20048;-73
2023/12/17 03:44:04;;;;;;;8.68;3.97;;;9.40;99.90;;;;;;5051022;28;20059;-73
2023/12/17 03:46:30;;;;;;;10.55;4.05;;;9.30;99.90;;;;;;5051126;28;20509;-73
2023/12/17 03:48:55;;;;;;;10.75;4.43;;;9.30;99.90;;;;;;5050861;28;20045;-73
2023/12/17 03:51:21;;;;;;;8.80;4.20;;;9.30;99.90;;;;;;5050643;28;20045;-72
2023/12/17 03:53:47;;;;;;;8.45;3.50;;;9.30;99.90;;;;;;5050203;28;20194;-73
2023/12/17 03:56:14;;;;;;;9.95;4.03;;;9.30;99.90;;;;;;5050528;28;20098;-73
2023/12/17 03:58:40;;;;;;;8.30;3.85;;;9.40;99.90;;;;;;5051092;28;20503;-73
2023/12/17 04:01:07;;;;;;;10.38;4.55;;;9.50;99.90;;;;;;5050293;28;20053;-74
2023/12/17 04:03:33;;;;;;;10.38;4.50;;;9.30;99.90;;;;;;5051144;28;20113;-73
2023/12/17 04:06:00;;;;;;;9.23;4.18;;;9.20;99.90;;;;;;5051570;28;20051;-73
2023/12/17 04:08:27;;;;;;;8.88;3.65;;;9.20;99.90;;;;;;5049422;28;20103;-73
2023/12/17 04:10:52;;;;;;;12.68;4.18;;;9.10;99.90;;;;;;5050250;28;20052;-72
2023/12/17 04:13:18;;;;;;;10.55;4.00;;;9.20;99.90;;;;;;5051412;28;20512;-72
2023/12/17 04:15:44;;;;;;;10.98;4.78;;;9.20;99.90;;;;;;5050117;28;20076;-72
2023/12/17 04:18:09;;;;;;;13.48;4.78;;;9.00;99.90;;;;;;5050998;28;20048;-72
2023/12/17 04:20:35;;;;;;;13.40;5.05;;;9.00;99.90;;;;;;5052355;28;20044;-72
2023/12/17 04:23:01;;;;;;;11.77;5.05;;;8.90;99.90;;;;;;5049970;28;20124;-73
2023/12/17 04:25:29;;;;;;;10.68;5.10;;;8.90;99.90;;;;;;5052052;28;20388;-72
2023/12/17 04:27:55;;;;;;;10.85;4.93;;;9.00;99.90;;;;;;5055116;28;20072;-72
2023/12/17 04:30:20;;;;;;;10.05;5.20;;;8.90;99.90;;;;;;5054052;28;20079;-72
2023/12/17 04:32:46;;;;;;;13.65;4.72;;;9.10;99.90;;;;;;5054768;28;20476;-72
2023/12/17 04:35:11;;;;;;;12.65;5.10;;;9.00;99.90;;;;;;5054204;28;20057;-72
2023/12/17 04:37:37;;;;;;;10.75;4.25;;;9.00;99.90;;;;;;5054355;28;20052;-72
2023/12/17 04:40:03;;;;;;;10.35;4.40;;;9.30;99.90;;;;;;5054294;28;20036;-72
2023/12/17 04:42:29;;;;;;;10.40;4.32;;;9.00;99.90;;;;;;5054753;28;20067;-72
2023/12/17 04:44:55;;;;;;;10.35;4.80;;;9.00;99.90;;;;;;5053635;28;20037;-72
2023/12/17 04:47:20;;;;;;;10.20;4.85;;;9.00;99.90;;;;;;5054483;28;20132;-73
2023/12/17 04:49:46;;;;;;;10.60;4.80;;;8.90;99.90;;;;;;5054776;28;20171;-72
2023/12/17 04:52:15;;;;;;;14.93;4.65;;;8.90;99.90;;;;;;5053722;28;20088;-72
2023/12/17 04:54:40;;;;;;;15.93;5.47;;;8.90;99.90;;;;;;5054078;28;20049;-72
2023/12/17 04:57:06;;;;;;;11.25;5.22;;;9.00;99.90;;;;;;5053634;28;20044;-72
2023/12/17 04:59:34;;;;;;;10.32;5.03;;;8.90;99.90;;;;;;5054514;28;20052;-72
2023/12/17 05:02:00;;;;;;;10.68;4.68;;;9.10;99.90;;;;;;5053969;28;20094;-72
2023/12/17 05:04:26;;;;;;;13.60;5.07;;;9.00;99.90;;;;;;5053467;28;20120;-72
2023/12/17 05:06:51;;;;;;;13.48;4.63;;;9.10;99.90;;;;;;5053820;28;20477;-72
2023/12/17 05:09:17;;;;;;;13.45;5.35;;;9.20;99.90;;;;;;5054129;28;20048;-72
2023/12/17 05:11:43;;;;;;;14.85;5.65;;;9.10;99.90;;;;;;5053405;28;20519;-73
2023/12/17 05:14:08;;;;;;;12.43;5.78;;;9.10;99.90;;;;;;5054119;28;20055;-73
2023/12/17 05:16:34;;;;;;;12.82;5.85;;;9.20;99.90;;;;;;5054321;28;20542;-72
2023/12/17 05:19:00;;;;;;;10.48;5.47;;;9.50;99.90;;;;;;5053679;28;20119;-72
2023/12/17 05:21:25;;;;;;;12.07;5.78;;;9.30;99.90;;;;;;5053263;28;20079;-73
2023/12/17 05:23:51;;;;;;;11.25;5.50;;;9.30;99.90;;;;;;5053581;28;20045;-72
2023/12/17 05:26:16;;;;;;;16.88;6.57;;;9.30;99.90;;;;;;5052537;28;20488;-72
2023/12/17 05:28:42;;;;;;;13.00;6.80;;;9.30;99.90;;;;;;5053802;28;20073;-72
2023/12/17 05:31:09;;;;;;;14.10;6.78;;;9.30;99.90;;;;;;5053385;28;20394;-73
2023/12/17 05:33:35;;;;;;;18.80;7.00;;;9.30;99.90;;;;;;5052637;28;20037;-73
2023/12/17 05:36:00;;;;;;;15.60;7.18;;;9.30;99.90;;;;;;5053016;28;20060;-73
2023/12/17 05:38:30;;;;;;;14.27;7.82;;;9.30;99.90;;;;;;5052596;28;20073;-73
2023/12/17 05:40:55;;;;;;;17.10;6.95;;;9.30;99.90;;;;;;5052964;28;20448;-73
2023/12/17 05:43:21;;;;;;;17.08;7.95;;;9.70;99.90;;;;;;5052088;28;20076;-73
2023/12/17 05:45:46;;;;;;;14.88;8.15;;;9.30;99.90;;;;;;5053278;28;20047;-73
2023/12/17 05:48:14;;;;;;;12.95;8.30;;;9.30;99.90;;;;;;5052703;28;20496;-73
2023/12/17 05:50:40;;;;;;;14.75;7.82;;;9.70;99.90;;;;;;5053269;28;20055;-73
2023/12/17 05:53:06;;;;;;;18.10;7.75;;;9.30;99.90;;;;;;5052191;28;20033;-73
2023/12/17 05:55:31;;;;;;;12.95;7.30;;;9.30;99.90;;;;;;5052765;28;20052;-73
2023/12/17 05:57:57;;;;;;;22.48;8.70;;;9.30;99.90;;;;;;5053362;28;20473;-73
2023/12/17 06:00:22;;;;;;;18.10;8.23;;;9.70;99.90;;;;;;5052390;28;20090;-74
2023/12/17 06:02:48;;;;;;;19.55;8.65;;;9.20;99.90;;;;;;5053127;28;20048;-73
2023/12/17 06:05:14;;;;;;;23.63;9.75;;;9.30;99.90;;;;;;5052546;28;20087;-74
2023/12/17 06:07:39;;;;;;;18.70;9.02;;;9.40;99.90;;;;;;5053837;28;20041;-73
2023/12/17 06:10:06;;;;;;;16.10;9.13;;;9.60;99.90;;;;;;5052869;28;20510;-73
2023/12/17 06:12:31;;;;;;;22.20;9.05;;;9.30;99.90;;;;;;5051901;28;20032;-73
2023/12/17 06:14:57;;;;;;;15.50;8.35;;;9.40;99.90;;;;;;5052439;28;20544;-73
2023/12/17 06:17:22;;;;;;;20.10;9.45;;;9.50;99.90;;;;;;5052623;28;20404;-73
2023/12/17 06:19:48;;;;;;;22.80;9.52;;;9.30;99.90;;;;;;5052983;28;20045;-73
2023/12/17 06:22:16;;;;;;;22.27;9.75;;;9.30;99.90;;;;;;5051601;28;20055;-72
2023/12/17 06:24:41;;;;;;;15.48;8.50;;;9.50;99.90;;;;;;5052545;28;20174;-73
2023/12/17 06:27:17;;;;;;;19.13;9.23;;;9.50;99.90;;;;;;5052349;28;20139;-74
2023/12/17 06:29:44;;;;;;;16.83;7.55;;;9.40;99.90;;;;;;5053382;28;20416;-73
2023/12/17 06:32:11;;;;;;;16.90;9.45;;;9.40;99.90;;;;;;5052254;28;20534;-73
2023/12/17 06:34:41;;;;;;;21.00;9.30;;;9.30;99.90;;;;;;5052380;28;20048;-73
2023/12/17 06:37:13;;;;;;;20.48;8.38;;;9.30;99.90;;;;;;5051683;28;20048;-73
2023/12/17 06:39:42;;;;;;;22.85;9.40;;;9.30;99.90;;;;;;5052602;28;20514;-73
2023/12/17 06:42:11;;;;;;;20.45;8.75;;;9.20;99.90;;;;;;5052170;28;20051;-73
2023/12/17 06:44:36;;;;;;;22.95;10.00;;;9.30;99.90;;;;;;5051655;28;20037;-72
2023/12/17 06:47:02;;;;;;;18.88;8.07;;;9.40;99.90;;;;;;5051468;28;20166;-73
2023/12/17 06:49:28;;;;;;;18.05;7.97;;;9.40;99.90;;;;;;5051171;28;20103;-72
2023/12/17 06:51:53;;;;;;;21.50;8.80;;;9.60;99.90;;;;;;5052161;28;20048;-72
2023/12/17 06:54:20;;;;;;;14.73;6.80;;;9.40;99.90;;;;;;5051868;28;20037;-72
2023/12/17 06:56:46;;;;;;;21.25;9.13;;;9.30;99.90;;;;;;5051228;28;20081;-72
2023/12/17 06:59:11;;;;;;;12.88;7.55;;;9.20;99.90;;;;;;5052221;28;20064;-72
2023/12/17 07:01:37;;;;;;;16.05;8.60;;;9.20;99.90;;;;;;5052071;28;20087;-72
2023/12/17 07:04:02;;;;;;;20.40;7.60;;;9.10;99.90;;;;;;5051098;28;20136;-72
2023/12/17 07:06:30;;;;;;;18.05;7.78;;;9.20;99.90;;;;;;5052599;28;20040;-72
2023/12/17 07:08:56;;;;;;;24.20;7.43;;;9.20;99.90;;;;;;5052079;28;20092;-72
2023/12/17 07:11:22;;;;;;;20.08;7.82;;;9.40;99.90;;;;;;5050847;28;20084;-72
2023/12/17 07:13:49;;;;;;;14.77;5.80;;;9.20;99.90;;;;;;5052063;28;20041;-72
2023/12/17 07:16:22;;;;;;;19.58;6.75;;;9.20;99.90;;;;;;5050732;28;20795;-72
2023/12/17 07:18:47;;;;;;;16.90;7.07;;;9.20;99.90;;;;;;5036978;28;20544;-73
2023/12/17 07:21:13;;;;;;;18.17;7.47;;;10.10;99.90;;;;;;5051297;28;20140;-73
2023/12/17 07:23:39;;;;;;;15.85;6.32;;;9.20;99.90;;;;;;5051337;28;20045;-73
2023/12/17 07:26:04;;;;;;;20.88;7.05;;;9.20;99.90;;;;;;5050290;28;20386;-73
2023/12/17 07:28:30;;;;;;;16.58;6.50;;;9.20;99.90;;;;;;5052383;28;20052;-73
2023/12/17 07:30:55;;;;;;;15.63;5.90;;;9.20;99.90;;;;;;5051025;28;20040;-73
2023/12/17 07:33:21;;;;;;;18.75;6.25;;;9.20;99.90;;;;;;5051770;28;20036;-73
2023/12/17 07:35:46;;;;;;;15.73;5.75;;;9.20;99.90;;;;;;5052562;28;20049;-72
2023/12/17 07:38:12;;;;;;;12.50;5.32;;;9.20;99.90;;;;;;5052070;28;20127;-73
2023/12/17 07:40:39;;;;;;;14.55;6.07;;;9.70;99.90;;;;;;5050314;28;20472;-74
2023/12/17 07:43:05;;;;;;;14.38;5.47;;;9.60;99.90;;;;;;5051019;28;20083;-75
2023/12/17 07:45:32;;;;;;;17.15;6.50;;;9.30;99.90;;;;;;5051202;28;20049;-73
2023/12/17 07:48:04;;;;;;;14.38;7.10;;;10.10;99.90;;;;;;5050510;28;20049;-71
2023/12/17 07:50:33;;;;;;;18.13;7.15;;;9.10;99.90;;;;;;5050922;28;20381;-74
2023/12/17 07:52:58;;;;;;;9.93;5.43;;;9.30;99.90;;;;;;5050243;28;20040;-73
2023/12/17 07:55:24;;;;;;;19.15;8.05;;;9.30;99.90;;;;;;5050990;28;20090;-75
2023/12/17 07:57:52;;;;;;;16.13;7.60;;;9.20;99.90;;;;;;5050839;28;20052;-74
2023/12/17 08:00:18;;;;;;;20.38;9.25;;;9.20;99.90;;;;;;5049563;28;20365;-75
2023/12/17 08:02:45;;;;;;;21.05;9.70;;;9.10;99.90;;;;;;5050960;28;20056;-75
2023/12/17 08:05:10;;;;;;;23.98;9.77;;;9.10;99.90;;;;;;5050723;28;20051;-74
2023/12/17 08:07:37;;;;;;;23.10;9.65;;;9.00;99.90;;;;;;5050532;28;20041;-75
2023/12/17 08:10:06;;;;;;;17.60;8.45;;;9.00;99.90;;;;;;5050593;28;20055;-74
2023/12/17 08:12:32;;;;;;;17.48;8.05;;;8.90;99.90;;;;;;5052233;28;20052;-76
2023/12/17 08:14:58;;;;;;;18.98;8.70;;;9.00;99.90;;;;;;5046328;28;20102;-75
2023/12/17 08:17:23;;;;;;;17.20;7.93;;;8.90;99.90;;;;;;5050140;28;20126;-75
2023/12/17 08:19:49;;;;;;;19.38;8.10;;;9.40;99.90;;;;;;5049387;28;20068;-75
2023/12/17 08:22:14;;;;;;;19.77;9.35;;;9.00;99.90;;;;;;5050635;28;20091;-75
2023/12/17 08:24:40;;;;;;;22.48;9.60;;;8.80;99.90;;;;;;5049774;28;20047;-75
2023/12/17 08:27:06;;;;;;;16.23;8.60;;;8.80;99.90;;;;;;5049891;28;20085;-74
2023/12/17 08:29:31;;;;;;;18.83;8.70;;;8.80;99.90;;;;;;5047538;28;20474;-76
2023/12/17 08:31:57;;;;;;;18.10;8.80;;;8.80;99.90;;;;;;5048638;28;20056;-74
2023/12/17 08:34:24;;;;;;;18.33;8.18;;;8.90;99.90;;;;;;5048193;28;20040;-73
2023/12/17 08:36:51;;;;;;;18.13;8.55;;;9.00;99.90;;;;;;5048889;28;20086;-76
2023/12/17 08:39:16;;;;;;;28.52;12.85;;;8.90;99.90;;;;;;5049721;28;20036;-74
2023/12/17 08:41:42;;;;;;;14.95;7.00;;;9.10;99.90;;;;;;5049953;28;20047;-74
2023/12/17 08:44:08;;;;;;;15.98;6.90;;;9.40;99.90;;;;;;5048905;28;20084;-74
2023/12/17 08:46:34;;;;;;;19.58;8.30;;;8.90;99.90;;;;;;5049565;28;20049;-74
2023/12/17 08:48:59;;;;;;;19.45;7.72;;;8.90;99.90;;;;;;5046511;28;20048;-75
2023/12/17 08:51:25;;;;;;;19.33;8.70;;;9.00;99.90;;;;;;5050216;28;20041;-74
2023/12/17 08:53:51;;;;;;;17.60;6.55;;;9.50;99.90;;;;;;5049733;28;20033;-74
2023/12/17 08:56:16;;;;;;;22.17;7.97;;;9.10;99.90;;;;;;5048825;28;20033;-73
2023/12/17 08:58:42;;;;;;;19.38;7.35;;;9.00;99.90;;;;;;5050236;28;20041;-74
2023/12/17 09:01:07;;;;;;;15.23;7.80;;;9.10;99.90;;;;;;5050990;28;20045;-74
2023/12/17 09:03:33;;;;;;;;;;;9.10;99.90;;;;;;5051076;28;20033;-73
2023/12/17 09:06:01;;;;;;;17.65;6.95;;;9.10;99.90;;;;;;5050697;28;20392;-75
2023/12/17 09:08:27;;;;;;;23.33;6.85;;;9.20;99.90;;;;;;5049742;28;20041;-75
2023/12/17 09:10:52;;;;;;;25.30;6.57;;;9.20;99.90;;;;;;5048941;28;20052;-75
2023/12/17 09:13:18;;;;;;;23.55;7.82;;;9.20;99.90;;;;;;5050608;28;20445;-76
2023/12/17 09:15:43;;;;;;;26.10;7.07;;;9.50;99.90;;;;;;5053646;28;20033;-76
2023/12/17 09:18:10;;;;;;;17.02;7.07;;;9.20;99.90;;;;;;5051986;28;20578;-76
2023/12/17 09:20:35;;;;;;;19.73;7.05;;;9.20;99.90;;;;;;5053109;28;20045;-74
2023/12/17 09:23:02;;;;;;;27.73;8.30;;;9.30;99.90;;;;;;5052914;28;20103;-75
2023/12/17 09:25:28;;;;;;;19.10;8.35;;;9.40;99.90;;;;;;5052251;28;20044;-74
2023/12/17 09:27:53;;;;;;;20.85;8.00;;;9.40;99.90;;;;;;5053124;28;20071;-78
2023/12/17 09:30:19;;;;;;;18.65;7.85;;;9.30;99.90;;;;;;5053139;28;20029;-74
2023/12/17 09:32:45;;;;;;;24.30;8.50;;;9.30;99.90;;;;;;5048585;28;20045;-75
2023/12/17 09:35:11;;;;;;;18.48;7.72;;;9.50;99.90;;;;;;5051057;28;20435;-75
2023/12/17 09:37:38;;;;;;;19.67;8.45;;;9.40;99.90;;;;;;5054428;28;20068;-79
2023/12/17 09:40:04;;;;;;;23.58;8.60;;;9.50;99.90;;;;;;5051564;28;20051;-75
2023/12/17 09:42:30;;;;;;;25.10;7.40;;;9.40;99.90;;;;;;5054398;28;20091;-75
2023/12/17 09:44:56;;;;;;;25.67;9.60;;;9.50;99.90;;;;;;5053206;28;20037;-80
2023/12/17 09:47:22;;;;;;;19.08;8.85;;;9.90;99.90;;;;;;5052271;28;20132;-76
2023/12/17 09:49:47;;;;;;;26.92;10.05;;;9.90;99.90;;;;;;5054179;28;20052;-76
2023/12/17 09:52:17;;;;;;;;;;;9.90;99.90;;;;;;5052780;28;20067;-75
2023/12/17 09:54:43;;;;;;;26.85;9.32;;;9.50;99.90;;;;;;5053335;28;19920;-74
2023/12/17 09:57:11;;;;;;;19.83;9.23;;;9.40;99.90;;;;;;5053180;28;20370;-76
2023/12/17 09:59:37;;;;;;;23.15;8.35;;;9.50;99.90;;;;;;5052729;28;20048;-78
2023/12/17 10:02:03;;;;;;;30.27;11.05;;;9.50;99.90;;;;;;5052375;28;20045;-78
2023/12/17 10:04:28;;;;;;;23.60;9.70;;;9.60;99.90;;;;;;5054378;28;20396;-76
2023/12/17 10:06:57;;;;;;;25.73;9.43;;;9.50;99.90;;;;;;5053434;28;20060;-78
2023/12/17 10:09:22;;;;;;;23.55;8.95;;;9.60;99.90;;;;;;5052941;28;20041;-77
2023/12/17 10:11:48;;;;;;;19.33;8.02;;;9.70;99.90;;;;;;5053031;28;20045;-77
2023/12/17 10:14:24;;;;;;;24.13;9.10;;;9.60;99.90;;;;;;5051544;28;20045;-76
2023/12/17 10:16:53;;;;;;;;;;;10.00;99.90;;;;;;5053061;28;20439;-76
2023/12/17 10:19:19;;;;;;;20.17;7.05;;;9.50;99.90;;;;;;5035765;28;20404;-78
2023/12/17 10:21:45;;;;;;;24.52;8.10;;;10.60;99.90;;;;;;5052102;28;20103;-77
2023/12/17 10:24:10;;;;;;;27.27;8.98;;;10.10;99.90;;;;;;5051692;28;20401;-77
2023/12/17 10:26:46;;;;;;;;;;;10.00;99.90;;;;;;5052666;28;20049;-75
2023/12/17 10:29:18;;;;;;;20.80;8.02;;;9.60;99.90;;;;;;5051333;28;19928;-74
2023/12/17 10:31:44;;;;;;;20.83;8.52;;;9.70;99.90;;;;;;5052844;28;20473;-73
2023/12/17 10:34:22;;;;;;;18.88;8.23;;;9.60;99.90;;;;;;5053272;28;20032;-75
2023/12/17 10:36:49;;;;;;;25.80;8.60;;;9.60;99.90;;;;;;5051827;28;20103;-77
2023/12/17 10:39:16;;;;;;;21.08;8.70;;;9.60;99.90;;;;;;5052047;28;20059;-74
2023/12/17 10:41:42;;;;;;;21.95;8.75;;;10.10;99.90;;;;;;5051646;28;20051;-74
2023/12/17 10:44:12;;;;;;;28.67;9.27;;;9.60;99.90;;;;;;5051666;28;20084;-74
2023/12/17 10:46:44;;;;;;;23.23;9.10;;;9.60;99.90;;;;;;5051537;28;20049;-74
2023/12/17 10:49:13;;;;;;;27.92;9.70;;;10.40;99.90;;;;;;5051157;28;20374;-74
2023/12/17 10:51:42;;;;;;;24.83;10.38;;;9.60;99.90;;;;;;5052242;28;20076;-76
2023/12/17 10:54:11;;;;;;;29.83;9.40;;;9.70;99.90;;;;;;5051612;28;20056;-71
2023/12/17 10:56:47;;;;;;;30.63;10.88;;;9.90;99.90;;;;;;5051380;28;20053;-71
2023/12/17 10:59:17;;;;;;;20.17;7.68;;;9.50;99.90;;;;;;5052029;28;20457;-71
2023/12/17 11:01:45;;;;;;;22.15;9.43;;;9.70;99.90;;;;;;5051615;28;20044;-71
2023/12/17 11:04:14;;;;;;;23.63;8.35;;;10.50;99.90;;;;;;5045848;28;20076;-73
2023/12/17 11:06:40;;;;;;;25.17;9.13;;;9.70;99.90;;;;;;5050766;28;20499;-72
2023/12/17 11:09:05;;;;;;;22.70;7.75;;;9.70;99.90;;;;;;5050818;28;20037;-72
2023/12/17 11:11:32;;;;;;;20.30;7.40;;;10.10;99.90;;;;;;5048887;28;20040;-73
2023/12/17 11:14:02;;;;;;;24.30;8.57;;;9.90;99.90;;;;;;5048224;28;20481;-71
2023/12/17 11:16:31;;;;;;;19.98;8.60;;;9.70;99.90;;;;;;5048525;28;20049;-74
2023/12/17 11:19:00;;;;;;;23.20;8.73;;;10.50;99.90;;;;;;5050531;28;20385;-74
2023/12/17 11:21:27;;;;;;;18.20;8.00;;;10.40;99.90;;;;;;5051529;28;20036;-74
2023/12/17 11:23:52;;;;;;;26.92;8.70;;;9.90;99.90;;;;;;5050719;28;20037;-73
2023/12/17 11:26:19;;;;;;;23.42;8.45;;;10.50;99.90;;;;;;5050912;28;20071;-72
2023/12/17 11:28:45;;;;;;;26.10;9.23;;;9.80;99.90;;;;;;5050692;28;20094;-72
2023/12/17 11:31:12;;;;;;;24.42;7.95;;;9.80;99.90;;;;;;5050013;28;20044;-73
2023/12/17 11:33:39;;;;;;;16.10;7.10;;;9.90;99.90;;;;;;5048821;28;20094;-72
2023/12/17 11:36:10;;;;;;;24.00;9.25;;;10.00;99.90;;;;;;5048643;28;20144;-72
2023/12/17 11:38:36;;;;;;;15.95;6.80;;;9.90;99.90;;;;;;5049875;28;20049;-73
2023/12/17 11:41:03;;;;;;;21.55;8.27;;;10.20;99.90;;;;;;5050170;28;20056;-73
2023/12/17 11:43:32;;;;;;;18.98;7.93;;;10.00;99.90;;;;;;5051011;28;20033;-73
2023/12/17 11:45:58;;;;;;;19.92;8.07;;;10.00;99.90;;;;;;5049742;28;20040;-75
2023/12/17 11:48:25;;;;;;;17.95;7.72;;;10.10;99.90;;;;;;5050736;28;20099;-75
2023/12/17 11:50:52;;;;;;;20.70;9.02;;;10.30;99.90;;;;;;5051336;28;20076;-79
2023/12/17 11:53:22;;;;;;;22.83;8.93;;;10.90;99.90;;;;;;5049272;28;20174;-73
2023/12/17 11:56:03;;;;;;;23.80;9.07;;;11.10;99.90;;;;;;5046511;28;20041;-75
2023/12/17 11:58:29;;;;;;;19.23;9.43;;;11.40;99.90;;;;;;5052460;28;20039;-74
2023/12/17 12:01:01;;;;;;;18.40;8.45;;;11.20;99.90;;;;;;5050362;28;20439;-75
2023/12/17 12:03:27;;;;;;;18.58;8.55;;;11.90;99.90;;;;;;5051754;28;20071;-74
2023/12/17 12:06:04;;;;;;;20.85;9.00;;;11.20;99.90;;;;;;5052619;28;20095;-75
2023/12/17 12:08:33;;;;;;;;;;;11.10;99.90;;;;;;5052553;28;20047;-75
2023/12/17 12:10:59;;;;;;;20.10;10.07;;;11.10;99.90;;;;;;5051170;28;19921;-74
2023/12/17 12:13:24;;;;;;;26.48;10.98;;;11.10;99.90;;;;;;5048814;28;20108;-74
2023/12/17 12:15:55;;;;;;;21.67;11.02;;;11.20;99.90;;;;;;5046259;28;20044;-75
2023/12/17 12:18:21;;;;;;;19.40;10.18;;;11.70;99.90;;;;;;5053417;28;20120;-74
2023/12/17 12:20:49;;;;;;;17.33;9.55;;;12.00;99.90;;;;;;5054386;28;20083;-73
2023/12/17 12:23:15;;;;;;;21.33;10.00;;;12.30;99.90;;;;;;5055793;28;20052;-73
2023/12/17 12:25:41;;;;;;;23.13;11.10;;;12.10;99.90;;;;;;5052461;28;20056;-74
2023/12/17 12:28:18;;;;;;;20.05;10.13;;;12.30;99.90;;;;;;5050164;28;20033;-72
2023/12/17 12:30:50;;;;;;;24.42;10.80;;;12.20;99.90;;;;;;5052230;28;20083;-75
2023/12/17 12:33:20;;;;;;;21.70;9.35;;;12.60;99.90;;;;;;5052271;28;20115;-74
2023/12/17 12:35:48;;;;;;;18.52;10.35;;;12.70;99.90;;;;;;5051311;28;20063;-74
2023/12/17 12:38:21;;;;;;;23.92;10.85;;;12.90;99.90;;;;;;5050330;28;20128;-72
2023/12/17 12:40:47;;;;;;;20.08;9.93;;;12.80;99.90;;;;;;5051323;28;20106;-73
2023/12/17 12:43:16;;;;;;;20.58;9.05;;;12.90;99.90;;;;;;5049356;28;20037;-73